Terminal Aerodrome Forecast
Issued by NWS

Home | Current Version | Previous Version | Text Only | Print | Product List | Glossary On
Versions: 1 2 3 4 5 6 7 8 9 10 11 12 13 14 15 16
215
FTUS42 KMLB 232023 AAA
TAFTIX
TAF AMD
KTIX 232023Z 2320/2418 07018G27KT P6SM VCSH BKN027 BKN035
     FM240300 08010KT P6SM FEW030 BKN100
     FM241400 10014G22KT P6SM SCT030 BKN120=

USA.gov is the U.S. government's official web portal to all federal, state and local government web resources and services.